sensor_id;sensor_type;location;lat;lon;timestamp;P1;durP1;ratioP1;P2;durP2;ratioP2
68050;SDS011;54839;51.364;7.246;2024-03-02T00:00:21;3.17;;;2.63;;
68050;SDS011;54839;51.364;7.246;2024-03-02T00:02:47;2.40;;;2.20;;
68050;SDS011;54839;51.364;7.246;2024-03-02T00:05:15;4.27;;;3.17;;
68050;SDS011;54839;51.364;7.246;2024-03-02T00:07:45;4.00;;;2.90;;
68050;SDS011;54839;51.364;7.246;2024-03-02T00:10:18;2.80;;;2.47;;
68050;SDS011;54839;51.364;7.246;2024-03-02T00:12:47;2.27;;;2.07;;
68050;SDS011;54839;51.364;7.246;2024-03-02T00:15:30;2.93;;;2.57;;
68050;SDS011;54839;51.364;7.246;2024-03-02T00:18:12;2.30;;;2.10;;
68050;SDS011;54839;51.364;7.246;2024-03-02T00:20:41;3.27;;;2.63;;
68050;SDS011;54839;51.364;7.246;2024-03-02T00:23:07;3.00;;;2.40;;
68050;SDS011;54839;51.364;7.246;2024-03-02T00:25:36;5.63;;;2.90;;
68050;SDS011;54839;51.364;7.246;2024-03-02T00:28:05;2.27;;;2.07;;
68050;SDS011;54839;51.364;7.246;2024-03-02T00:30:41;2.00;;;1.87;;
68050;SDS011;54839;51.364;7.246;2024-03-02T00:33:19;3.07;;;2.77;;
68050;SDS011;54839;51.364;7.246;2024-03-02T00:35:46;2.77;;;1.87;;
68050;SDS011;54839;51.364;7.246;2024-03-02T00:38:12;2.70;;;1.90;;
68050;SDS011;54839;51.364;7.246;2024-03-02T00:40:40;2.33;;;2.13;;
68050;SDS011;54839;51.364;7.246;2024-03-02T00:43:18;2.00;;;1.70;;
68050;SDS011;54839;51.364;7.246;2024-03-02T00:46:03;2.07;;;1.87;;
68050;SDS011;54839;51.364;7.246;2024-03-02T00:48:29;2.37;;;2.00;;
68050;SDS011;54839;51.364;7.246;2024-03-02T00:50:56;4.40;;;2.27;;
68050;SDS011;54839;51.364;7.246;2024-03-02T00:53:23;4.20;;;2.13;;
68050;SDS011;54839;51.364;7.246;2024-03-02T00:55:51;4.30;;;1.70;;
68050;SDS011;54839;51.364;7.246;2024-03-02T00:58:17;1.73;;;1.47;;
68050;SDS011;54839;51.364;7.246;2024-03-02T01:00:42;4.13;;;2.00;;
68050;SDS011;54839;51.364;7.246;2024-03-02T01:03:08;2.60;;;2.27;;
68050;SDS011;54839;51.364;7.246;2024-03-02T01:05:35;1.83;;;1.70;;
68050;SDS011;54839;51.364;7.246;2024-03-02T01:08:01;4.23;;;2.33;;
68050;SDS011;54839;51.364;7.246;2024-03-02T01:10:26;1.60;;;1.50;;
68050;SDS011;54839;51.364;7.246;2024-03-02T01:12:52;2.80;;;2.40;;
68050;SDS011;54839;51.364;7.246;2024-03-02T01:15:18;2.17;;;1.97;;
68050;SDS011;54839;51.364;7.246;2024-03-02T01:17:44;2.43;;;1.70;;
68050;SDS011;54839;51.364;7.246;2024-03-02T01:20:09;1.73;;;1.63;;
68050;SDS011;54839;51.364;7.246;2024-03-02T01:22:35;2.50;;;1.60;;
68050;SDS011;54839;51.364;7.246;2024-03-02T01:25:01;2.50;;;1.80;;
68050;SDS011;54839;51.364;7.246;2024-03-02T01:27:27;2.60;;;2.40;;
68050;SDS011;54839;51.364;7.246;2024-03-02T01:29:53;2.50;;;1.80;;
68050;SDS011;54839;51.364;7.246;2024-03-02T01:32:19;4.37;;;1.73;;
68050;SDS011;54839;51.364;7.246;2024-03-02T01:34:45;1.63;;;1.40;;
68050;SDS011;54839;51.364;7.246;2024-03-02T01:37:10;4.50;;;1.93;;
68050;SDS011;54839;51.364;7.246;2024-03-02T01:39:36;5.43;;;1.80;;
68050;SDS011;54839;51.364;7.246;2024-03-02T01:42:01;2.20;;;1.60;;
68050;SDS011;54839;51.364;7.246;2024-03-02T01:44:27;3.73;;;2.23;;
68050;SDS011;54839;51.364;7.246;2024-03-02T01:46:53;2.07;;;1.80;;
68050;SDS011;54839;51.364;7.246;2024-03-02T01:49:18;2.60;;;1.83;;
68050;SDS011;54839;51.364;7.246;2024-03-02T01:51:44;2.57;;;1.30;;
68050;SDS011;54839;51.364;7.246;2024-03-02T01:54:09;2.23;;;2.03;;
68050;SDS011;54839;51.364;7.246;2024-03-02T01:56:35;2.03;;;1.83;;
68050;SDS011;54839;51.364;7.246;2024-03-02T01:59:01;1.53;;;1.37;;
68050;SDS011;54839;51.364;7.246;2024-03-02T02:01:26;2.97;;;1.87;;
68050;SDS011;54839;51.364;7.246;2024-03-02T02:03:52;3.70;;;1.73;;
68050;SDS011;54839;51.364;7.246;2024-03-02T02:06:17;3.73;;;1.60;;
68050;SDS011;54839;51.364;7.246;2024-03-02T02:08:43;2.40;;;1.47;;
68050;SDS011;54839;51.364;7.246;2024-03-02T02:11:09;2.73;;;1.60;;
68050;SDS011;54839;51.364;7.246;2024-03-02T02:13:34;2.57;;;1.83;;
68050;SDS011;54839;51.364;7.246;2024-03-02T02:16:09;1.63;;;1.30;;
68050;SDS011;54839;51.364;7.246;2024-03-02T02:18:35;1.83;;;1.47;;
68050;SDS011;54839;51.364;7.246;2024-03-02T02:21:03;1.50;;;1.30;;
68050;SDS011;54839;51.364;7.246;2024-03-02T02:23:29;2.30;;;1.37;;
68050;SDS011;54839;51.364;7.246;2024-03-02T02:25:55;2.60;;;1.50;;
68050;SDS011;54839;51.364;7.246;2024-03-02T02:28:20;2.40;;;1.50;;
68050;SDS011;54839;51.364;7.246;2024-03-02T02:30:46;3.90;;;2.07;;
68050;SDS011;54839;51.364;7.246;2024-03-02T02:33:11;1.77;;;1.37;;
68050;SDS011;54839;51.364;7.246;2024-03-02T02:35:37;2.20;;;1.57;;
68050;SDS011;54839;51.364;7.246;2024-03-02T02:38:02;2.03;;;1.40;;
68050;SDS011;54839;51.364;7.246;2024-03-02T02:40:29;2.93;;;1.93;;
68050;SDS011;54839;51.364;7.246;2024-03-02T02:42:55;3.20;;;1.70;;
68050;SDS011;54839;51.364;7.246;2024-03-02T02:45:21;1.90;;;1.73;;
68050;SDS011;54839;51.364;7.246;2024-03-02T02:47:47;2.73;;;1.53;;
68050;SDS011;54839;51.364;7.246;2024-03-02T02:50:12;3.63;;;1.90;;
68050;SDS011;54839;51.364;7.246;2024-03-02T02:52:39;2.40;;;1.57;;
68050;SDS011;54839;51.364;7.246;2024-03-02T02:55:06;4.10;;;1.87;;
68050;SDS011;54839;51.364;7.246;2024-03-02T02:57:33;3.93;;;1.40;;
68050;SDS011;54839;51.364;7.246;2024-03-02T03:00:04;2.30;;;1.50;;
68050;SDS011;54839;51.364;7.246;2024-03-02T03:02:35;3.80;;;2.20;;
68050;SDS011;54839;51.364;7.246;2024-03-02T03:05:06;1.30;;;1.20;;
68050;SDS011;54839;51.364;7.246;2024-03-02T03:07:33;3.40;;;1.70;;
68050;SDS011;54839;51.364;7.246;2024-03-02T03:09:59;2.30;;;1.50;;
68050;SDS011;54839;51.364;7.246;2024-03-02T03:12:25;2.60;;;1.63;;
68050;SDS011;54839;51.364;7.246;2024-03-02T03:14:51;2.90;;;1.90;;
68050;SDS011;54839;51.364;7.246;2024-03-02T03:17:16;3.10;;;1.27;;
68050;SDS011;54839;51.364;7.246;2024-03-02T03:19:42;3.90;;;1.50;;
68050;SDS011;54839;51.364;7.246;2024-03-02T03:22:07;3.73;;;1.27;;
68050;SDS011;54839;51.364;7.246;2024-03-02T03:24:33;2.20;;;1.53;;
68050;SDS011;54839;51.364;7.246;2024-03-02T03:26:59;1.30;;;0.90;;
68050;SDS011;54839;51.364;7.246;2024-03-02T03:29:24;1.43;;;1.27;;
68050;SDS011;54839;51.364;7.246;2024-03-02T03:31:50;1.47;;;1.30;;
68050;SDS011;54839;51.364;7.246;2024-03-02T03:34:15;1.50;;;1.40;;
68050;SDS011;54839;51.364;7.246;2024-03-02T03:36:41;1.53;;;1.40;;
68050;SDS011;54839;51.364;7.246;2024-03-02T03:39:08;1.73;;;1.30;;
68050;SDS011;54839;51.364;7.246;2024-03-02T03:41:33;3.80;;;1.80;;
68050;SDS011;54839;51.364;7.246;2024-03-02T03:43:59;2.57;;;1.53;;
68050;SDS011;54839;51.364;7.246;2024-03-02T03:46:24;1.40;;;1.30;;
68050;SDS011;54839;51.364;7.246;2024-03-02T03:48:50;3.20;;;1.40;;
68050;SDS011;54839;51.364;7.246;2024-03-02T03:51:15;3.97;;;1.17;;
68050;SDS011;54839;51.364;7.246;2024-03-02T03:53:41;2.40;;;1.53;;
68050;SDS011;54839;51.364;7.246;2024-03-02T03:56:06;2.30;;;1.70;;
68050;SDS011;54839;51.364;7.246;2024-03-02T03:58:32;1.40;;;1.30;;
68050;SDS011;54839;51.364;7.246;2024-03-02T04:00:58;2.97;;;1.50;;
68050;SDS011;54839;51.364;7.246;2024-03-02T04:03:23;2.40;;;1.90;;
68050;SDS011;54839;51.364;7.246;2024-03-02T04:05:49;2.80;;;1.70;;
68050;SDS011;54839;51.364;7.246;2024-03-02T04:08:15;3.20;;;1.30;;
68050;SDS011;54839;51.364;7.246;2024-03-02T04:10:40;1.80;;;1.60;;
68050;SDS011;54839;51.364;7.246;2024-03-02T04:13:07;2.00;;;1.30;;
68050;SDS011;54839;51.364;7.246;2024-03-02T04:15:32;2.70;;;1.70;;
68050;SDS011;54839;51.364;7.246;2024-03-02T04:17:58;2.07;;;1.70;;
68050;SDS011;54839;51.364;7.246;2024-03-02T04:20:23;1.60;;;1.50;;
68050;SDS011;54839;51.364;7.246;2024-03-02T04:22:50;2.03;;;1.37;;
68050;SDS011;54839;51.364;7.246;2024-03-02T04:25:15;4.50;;;1.63;;
68050;SDS011;54839;51.364;7.246;2024-03-02T04:27:41;3.17;;;1.63;;
68050;SDS011;54839;51.364;7.246;2024-03-02T04:30:06;2.60;;;2.23;;
68050;SDS011;54839;51.364;7.246;2024-03-02T04:32:32;1.90;;;1.70;;
68050;SDS011;54839;51.364;7.246;2024-03-02T04:34:58;2.40;;;1.80;;
68050;SDS011;54839;51.364;7.246;2024-03-02T04:37:23;2.77;;;1.60;;
68050;SDS011;54839;51.364;7.246;2024-03-02T04:39:49;2.60;;;2.40;;
68050;SDS011;54839;51.364;7.246;2024-03-02T04:42:14;2.77;;;1.77;;
68050;SDS011;54839;51.364;7.246;2024-03-02T04:44:40;2.70;;;1.70;;
68050;SDS011;54839;51.364;7.246;2024-03-02T04:47:05;3.60;;;1.90;;
68050;SDS011;54839;51.364;7.246;2024-03-02T04:49:31;2.20;;;1.80;;
68050;SDS011;54839;51.364;7.246;2024-03-02T04:51:56;2.67;;;1.70;;
68050;SDS011;54839;51.364;7.246;2024-03-02T04:54:22;2.07;;;1.93;;
68050;SDS011;54839;51.364;7.246;2024-03-02T04:56:48;3.30;;;2.30;;
68050;SDS011;54839;51.364;7.246;2024-03-02T04:59:16;2.43;;;2.17;;
68050;SDS011;54839;51.364;7.246;2024-03-02T05:01:43;4.37;;;1.70;;
68050;SDS011;54839;51.364;7.246;2024-03-02T05:04:09;2.40;;;1.80;;
68050;SDS011;54839;51.364;7.246;2024-03-02T05:06:38;3.00;;;2.00;;
68050;SDS011;54839;51.364;7.246;2024-03-02T05:09:07;3.10;;;1.67;;
68050;SDS011;54839;51.364;7.246;2024-03-02T05:11:34;1.77;;;1.67;;
68050;SDS011;54839;51.364;7.246;2024-03-02T05:14:03;5.27;;;2.00;;
68050;SDS011;54839;51.364;7.246;2024-03-02T05:16:29;3.63;;;2.63;;
68050;SDS011;54839;51.364;7.246;2024-03-02T05:18:57;8.40;;;2.27;;
68050;SDS011;54839;51.364;7.246;2024-03-02T05:21:23;2.87;;;2.10;;
68050;SDS011;54839;51.364;7.246;2024-03-02T05:23:48;2.07;;;1.80;;
68050;SDS011;54839;51.364;7.246;2024-03-02T05:26:14;1.67;;;1.50;;
68050;SDS011;54839;51.364;7.246;2024-03-02T05:28:39;2.60;;;1.80;;
68050;SDS011;54839;51.364;7.246;2024-03-02T05:31:05;3.23;;;1.77;;
68050;SDS011;54839;51.364;7.246;2024-03-02T05:33:30;2.50;;;1.93;;
68050;SDS011;54839;51.364;7.246;2024-03-02T05:35:58;3.80;;;1.93;;
68050;SDS011;54839;51.364;7.246;2024-03-02T05:38:23;3.83;;;2.20;;
68050;SDS011;54839;51.364;7.246;2024-03-02T05:40:49;3.00;;;2.10;;
68050;SDS011;54839;51.364;7.246;2024-03-02T05:43:14;5.53;;;2.40;;
68050;SDS011;54839;51.364;7.246;2024-03-02T05:45:40;2.90;;;2.53;;
68050;SDS011;54839;51.364;7.246;2024-03-02T05:48:06;8.23;;;3.33;;
68050;SDS011;54839;51.364;7.246;2024-03-02T05:50:32;3.50;;;2.70;;
68050;SDS011;54839;51.364;7.246;2024-03-02T05:52:58;6.70;;;3.33;;
68050;SDS011;54839;51.364;7.246;2024-03-02T05:55:24;4.40;;;2.87;;
68050;SDS011;54839;51.364;7.246;2024-03-02T05:57:49;4.60;;;2.77;;
68050;SDS011;54839;51.364;7.246;2024-03-02T06:00:45;5.50;;;4.07;;
68050;SDS011;54839;51.364;7.246;2024-03-02T06:03:11;5.23;;;3.00;;
68050;SDS011;54839;51.364;7.246;2024-03-02T06:05:36;5.00;;;3.27;;
68050;SDS011;54839;51.364;7.246;2024-03-02T06:08:02;3.40;;;2.57;;
68050;SDS011;54839;51.364;7.246;2024-03-02T06:10:28;3.53;;;2.90;;
68050;SDS011;54839;51.364;7.246;2024-03-02T06:12:54;3.40;;;3.10;;
68050;SDS011;54839;51.364;7.246;2024-03-02T06:15:19;6.17;;;3.90;;
68050;SDS011;54839;51.364;7.246;2024-03-02T06:17:45;3.60;;;2.60;;
68050;SDS011;54839;51.364;7.246;2024-03-02T06:20:10;3.37;;;3.07;;
68050;SDS011;54839;51.364;7.246;2024-03-02T06:22:36;3.77;;;2.97;;
68050;SDS011;54839;51.364;7.246;2024-03-02T06:25:02;4.30;;;3.33;;
68050;SDS011;54839;51.364;7.246;2024-03-02T06:27:27;4.60;;;3.43;;
68050;SDS011;54839;51.364;7.246;2024-03-02T06:29:53;4.10;;;3.53;;
68050;SDS011;54839;51.364;7.246;2024-03-02T06:32:19;3.80;;;3.50;;
68050;SDS011;54839;51.364;7.246;2024-03-02T06:34:45;5.70;;;2.90;;
68050;SDS011;54839;51.364;7.246;2024-03-02T06:37:11;3.50;;;3.20;;
68050;SDS011;54839;51.364;7.246;2024-03-02T06:39:36;3.93;;;3.53;;
68050;SDS011;54839;51.364;7.246;2024-03-02T06:42:02;4.10;;;3.70;;
68050;SDS011;54839;51.364;7.246;2024-03-02T06:44:28;3.53;;;3.10;;
68050;SDS011;54839;51.364;7.246;2024-03-02T06:46:53;3.93;;;3.60;;
68050;SDS011;54839;51.364;7.246;2024-03-02T06:49:19;4.07;;;2.80;;
68050;SDS011;54839;51.364;7.246;2024-03-02T06:51:44;4.57;;;3.30;;
68050;SDS011;54839;51.364;7.246;2024-03-02T06:54:10;3.53;;;3.20;;
68050;SDS011;54839;51.364;7.246;2024-03-02T06:56:35;6.90;;;3.67;;
68050;SDS011;54839;51.364;7.246;2024-03-02T06:59:02;4.20;;;3.77;;
68050;SDS011;54839;51.364;7.246;2024-03-02T07:01:28;3.20;;;3.00;;
68050;SDS011;54839;51.364;7.246;2024-03-02T07:03:53;4.40;;;3.30;;
68050;SDS011;54839;51.364;7.246;2024-03-02T07:06:19;6.40;;;3.77;;
68050;SDS011;54839;51.364;7.246;2024-03-02T07:08:44;4.97;;;3.57;;
68050;SDS011;54839;51.364;7.246;2024-03-02T07:11:10;4.17;;;3.77;;
68050;SDS011;54839;51.364;7.246;2024-03-02T07:13:35;6.27;;;3.53;;
68050;SDS011;54839;51.364;7.246;2024-03-02T07:16:01;5.83;;;4.70;;
68050;SDS011;54839;51.364;7.246;2024-03-02T07:18:27;3.70;;;3.07;;
68050;SDS011;54839;51.364;7.246;2024-03-02T07:20:53;4.30;;;3.40;;
68050;SDS011;54839;51.364;7.246;2024-03-02T07:23:18;5.87;;;3.80;;
68050;SDS011;54839;51.364;7.246;2024-03-02T07:25:45;5.00;;;3.90;;
68050;SDS011;54839;51.364;7.246;2024-03-02T07:28:11;5.47;;;4.07;;
68050;SDS011;54839;51.364;7.246;2024-03-02T07:30:36;4.40;;;3.80;;
68050;SDS011;54839;51.364;7.246;2024-03-02T07:33:04;6.13;;;3.57;;
68050;SDS011;54839;51.364;7.246;2024-03-02T07:35:29;6.50;;;3.50;;
68050;SDS011;54839;51.364;7.246;2024-03-02T07:37:56;3.00;;;2.67;;
68050;SDS011;54839;51.364;7.246;2024-03-02T07:40:24;3.80;;;3.10;;
68050;SDS011;54839;51.364;7.246;2024-03-02T07:42:50;8.20;;;3.20;;
68050;SDS011;54839;51.364;7.246;2024-03-02T07:45:16;6.57;;;3.43;;
68050;SDS011;54839;51.364;7.246;2024-03-02T07:47:41;6.97;;;3.87;;
68050;SDS011;54839;51.364;7.246;2024-03-02T07:50:07;7.50;;;3.77;;
68050;SDS011;54839;51.364;7.246;2024-03-02T07:52:33;3.57;;;3.27;;
68050;SDS011;54839;51.364;7.246;2024-03-02T07:54:59;3.23;;;2.87;;
68050;SDS011;54839;51.364;7.246;2024-03-02T07:57:24;4.73;;;3.00;;
68050;SDS011;54839;51.364;7.246;2024-03-02T07:59:50;6.50;;;2.60;;
68050;SDS011;54839;51.364;7.246;2024-03-02T08:02:16;4.37;;;2.67;;
68050;SDS011;54839;51.364;7.246;2024-03-02T08:04:42;3.80;;;2.70;;
68050;SDS011;54839;51.364;7.246;2024-03-02T08:07:07;5.57;;;3.57;;
68050;SDS011;54839;51.364;7.246;2024-03-02T08:09:34;5.43;;;3.20;;
68050;SDS011;54839;51.364;7.246;2024-03-02T08:11:59;4.20;;;2.90;;
68050;SDS011;54839;51.364;7.246;2024-03-02T08:14:25;4.53;;;3.40;;
68050;SDS011;54839;51.364;7.246;2024-03-02T08:16:51;3.20;;;2.90;;
68050;SDS011;54839;51.364;7.246;2024-03-02T08:19:16;5.33;;;3.13;;
68050;SDS011;54839;51.364;7.246;2024-03-02T08:21:42;7.77;;;3.23;;
68050;SDS011;54839;51.364;7.246;2024-03-02T08:24:08;2.90;;;2.43;;
68050;SDS011;54839;51.364;7.246;2024-03-02T08:26:34;2.50;;;2.30;;
68050;SDS011;54839;51.364;7.246;2024-03-02T08:29:00;3.07;;;2.77;;
68050;SDS011;54839;51.364;7.246;2024-03-02T08:31:27;3.63;;;3.00;;
68050;SDS011;54839;51.364;7.246;2024-03-02T08:33:52;2.57;;;2.37;;
68050;SDS011;54839;51.364;7.246;2024-03-02T08:36:18;4.60;;;2.60;;
68050;SDS011;54839;51.364;7.246;2024-03-02T08:38:44;3.03;;;2.73;;
68050;SDS011;54839;51.364;7.246;2024-03-02T08:41:10;4.60;;;3.17;;
68050;SDS011;54839;51.364;7.246;2024-03-02T08:43:38;4.30;;;2.87;;
68050;SDS011;54839;51.364;7.246;2024-03-02T08:46:04;3.13;;;2.67;;
68050;SDS011;54839;51.364;7.246;2024-03-02T08:48:30;4.57;;;2.80;;
68050;SDS011;54839;51.364;7.246;2024-03-02T08:50:55;4.47;;;2.53;;
68050;SDS011;54839;51.364;7.246;2024-03-02T08:53:21;2.77;;;2.47;;
68050;SDS011;54839;51.364;7.246;2024-03-02T08:55:47;2.50;;;2.10;;
68050;SDS011;54839;51.364;7.246;2024-03-02T08:58:12;2.70;;;2.20;;
68050;SDS011;54839;51.364;7.246;2024-03-02T09:00:38;2.87;;;2.27;;
68050;SDS011;54839;51.364;7.246;2024-03-02T09:03:04;2.70;;;2.43;;
68050;SDS011;54839;51.364;7.246;2024-03-02T09:05:29;4.77;;;2.70;;
68050;SDS011;54839;51.364;7.246;2024-03-02T09:07:55;3.73;;;2.20;;
68050;SDS011;54839;51.364;7.246;2024-03-02T09:10:20;3.13;;;2.67;;
68050;SDS011;54839;51.364;7.246;2024-03-02T09:12:46;4.63;;;2.53;;
68050;SDS011;54839;51.364;7.246;2024-03-02T09:15:11;3.90;;;2.13;;
68050;SDS011;54839;51.364;7.246;2024-03-02T09:17:37;2.60;;;2.23;;
68050;SDS011;54839;51.364;7.246;2024-03-02T09:20:03;2.97;;;2.70;;
68050;SDS011;54839;51.364;7.246;2024-03-02T09:22:29;2.80;;;2.20;;
68050;SDS011;54839;51.364;7.246;2024-03-02T09:24:55;1.27;;;1.17;;
68050;SDS011;54839;51.364;7.246;2024-03-02T09:27:21;8.43;;;2.10;;
68050;SDS011;54839;51.364;7.246;2024-03-02T09:29:47;1.97;;;1.70;;
68050;SDS011;54839;51.364;7.246;2024-03-02T09:32:13;5.57;;;1.90;;
68050;SDS011;54839;51.364;7.246;2024-03-02T09:34:39;4.07;;;2.30;;
68050;SDS011;54839;51.364;7.246;2024-03-02T09:37:04;3.27;;;1.30;;
68050;SDS011;54839;51.364;7.246;2024-03-02T09:39:30;1.87;;;1.57;;
68050;SDS011;54839;51.364;7.246;2024-03-02T09:41:56;3.53;;;1.83;;
68050;SDS011;54839;51.364;7.246;2024-03-02T09:44:22;2.90;;;1.70;;
68050;SDS011;54839;51.364;7.246;2024-03-02T09:46:50;2.00;;;1.63;;
68050;SDS011;54839;51.364;7.246;2024-03-02T09:49:16;2.07;;;1.30;;
68050;SDS011;54839;51.364;7.246;2024-03-02T09:51:44;3.33;;;1.30;;
68050;SDS011;54839;51.364;7.246;2024-03-02T09:54:12;2.83;;;1.70;;
68050;SDS011;54839;51.364;7.246;2024-03-02T09:56:38;4.27;;;1.90;;
68050;SDS011;54839;51.364;7.246;2024-03-02T09:59:04;1.70;;;1.50;;
68050;SDS011;54839;51.364;7.246;2024-03-02T10:01:30;4.20;;;1.87;;
68050;SDS011;54839;51.364;7.246;2024-03-02T10:03:58;2.10;;;1.17;;
68050;SDS011;54839;51.364;7.246;2024-03-02T10:06:25;2.40;;;1.27;;
68050;SDS011;54839;51.364;7.246;2024-03-02T10:08:52;4.80;;;1.87;;
68050;SDS011;54839;51.364;7.246;2024-03-02T10:11:31;1.30;;;1.00;;
68050;SDS011;54839;51.364;7.246;2024-03-02T10:14:04;4.53;;;1.73;;
68050;SDS011;54839;51.364;7.246;2024-03-02T10:16:30;2.03;;;1.67;;
68050;SDS011;54839;51.364;7.246;2024-03-02T10:18:55;2.93;;;1.53;;
68050;SDS011;54839;51.364;7.246;2024-03-02T10:21:21;2.83;;;1.60;;
68050;SDS011;54839;51.364;7.246;2024-03-02T10:23:49;1.67;;;1.27;;
68050;SDS011;54839;51.364;7.246;2024-03-02T10:26:18;7.83;;;2.23;;
68050;SDS011;54839;51.364;7.246;2024-03-02T10:28:46;2.47;;;1.60;;
68050;SDS011;54839;51.364;7.246;2024-03-02T10:31:12;3.60;;;1.57;;
68050;SDS011;54839;51.364;7.246;2024-03-02T10:33:38;1.43;;;1.17;;
68050;SDS011;54839;51.364;7.246;2024-03-02T10:36:05;5.50;;;2.30;;
68050;SDS011;54839;51.364;7.246;2024-03-02T10:38:30;1.77;;;1.27;;
68050;SDS011;54839;51.364;7.246;2024-03-02T10:40:57;2.57;;;1.20;;
68050;SDS011;54839;51.364;7.246;2024-03-02T10:43:24;3.10;;;1.57;;
68050;SDS011;54839;51.364;7.246;2024-03-02T10:45:51;3.73;;;1.53;;
68050;SDS011;54839;51.364;7.246;2024-03-02T10:48:17;2.27;;;1.87;;
68050;SDS011;54839;51.364;7.246;2024-03-02T10:50:43;2.50;;;1.30;;
68050;SDS011;54839;51.364;7.246;2024-03-02T10:53:09;2.57;;;1.40;;
68050;SDS011;54839;51.364;7.246;2024-03-02T10:55:35;2.27;;;1.53;;
68050;SDS011;54839;51.364;7.246;2024-03-02T10:58:01;3.03;;;2.20;;
68050;SDS011;54839;51.364;7.246;2024-03-02T11:00:31;2.60;;;1.50;;
68050;SDS011;54839;51.364;7.246;2024-03-02T11:03:05;1.60;;;1.50;;
68050;SDS011;54839;51.364;7.246;2024-03-02T11:05:31;4.00;;;1.37;;
68050;SDS011;54839;51.364;7.246;2024-03-02T11:08:01;2.93;;;1.87;;
68050;SDS011;54839;51.364;7.246;2024-03-02T11:10:35;2.20;;;1.27;;
68050;SDS011;54839;51.364;7.246;2024-03-02T11:13:05;1.83;;;1.30;;
68050;SDS011;54839;51.364;7.246;2024-03-02T11:15:34;1.90;;;1.30;;
68050;SDS011;54839;51.364;7.246;2024-03-02T11:18:04;2.87;;;1.87;;
68050;SDS011;54839;51.364;7.246;2024-03-02T11:20:38;5.83;;;2.10;;
68050;SDS011;54839;51.364;7.246;2024-03-02T11:23:07;1.50;;;1.40;;
68050;SDS011;54839;51.364;7.246;2024-03-02T11:25:34;2.00;;;1.80;;
68050;SDS011;54839;51.364;7.246;2024-03-02T11:28:01;8.03;;;4.77;;
68050;SDS011;54839;51.364;7.246;2024-03-02T11:35:34;4.53;;;2.57;;
68050;SDS011;54839;51.364;7.246;2024-03-02T11:38:01;1.80;;;1.60;;
68050;SDS011;54839;51.364;7.246;2024-03-02T11:40:28;1.97;;;1.40;;
68050;SDS011;54839;51.364;7.246;2024-03-02T11:42:54;2.40;;;1.13;;
68050;SDS011;54839;51.364;7.246;2024-03-02T11:45:26;2.10;;;1.10;;
68050;SDS011;54839;51.364;7.246;2024-03-02T11:47:58;2.90;;;1.43;;
68050;SDS011;54839;51.364;7.246;2024-03-02T11:53:07;1.37;;;1.13;;
68050;SDS011;54839;51.364;7.246;2024-03-02T11:55:37;1.60;;;1.13;;
68050;SDS011;54839;51.364;7.246;2024-03-02T11:58:04;1.00;;;0.90;;
68050;SDS011;54839;51.364;7.246;2024-03-02T12:00:30;2.93;;;1.70;;
68050;SDS011;54839;51.364;7.246;2024-03-02T12:02:59;3.97;;;2.30;;
68050;SDS011;54839;51.364;7.246;2024-03-02T12:05:26;2.73;;;2.10;;
68050;SDS011;54839;51.364;7.246;2024-03-02T12:07:56;4.33;;;1.60;;
68050;SDS011;54839;51.364;7.246;2024-03-02T12:10:22;1.70;;;1.60;;
68050;SDS011;54839;51.364;7.246;2024-03-02T12:12:54;3.33;;;2.03;;
68050;SDS011;54839;51.364;7.246;2024-03-02T12:15:22;3.93;;;2.00;;
68050;SDS011;54839;51.364;7.246;2024-03-02T12:17:52;4.60;;;2.67;;
68050;SDS011;54839;51.364;7.246;2024-03-02T12:20:21;3.87;;;2.40;;
68050;SDS011;54839;51.364;7.246;2024-03-02T12:22:49;2.77;;;2.10;;
68050;SDS011;54839;51.364;7.246;2024-03-02T12:25:17;5.53;;;1.03;;
68050;SDS011;54839;51.364;7.246;2024-03-02T12:27:44;2.00;;;1.30;;
68050;SDS011;54839;51.364;7.246;2024-03-02T12:30:11;1.33;;;0.90;;
68050;SDS011;54839;51.364;7.246;2024-03-02T12:32:38;2.10;;;0.80;;
68050;SDS011;54839;51.364;7.246;2024-03-02T12:35:05;1.67;;;0.83;;
68050;SDS011;54839;51.364;7.246;2024-03-02T12:37:31;0.80;;;0.80;;
68050;SDS011;54839;51.364;7.246;2024-03-02T12:39:56;3.57;;;1.00;;
68050;SDS011;54839;51.364;7.246;2024-03-02T12:42:23;2.23;;;0.80;;
68050;SDS011;54839;51.364;7.246;2024-03-02T12:44:51;1.00;;;0.90;;
68050;SDS011;54839;51.364;7.246;2024-03-02T12:47:19;1.00;;;0.80;;
68050;SDS011;54839;51.364;7.246;2024-03-02T12:49:45;1.10;;;1.00;;
68050;SDS011;54839;51.364;7.246;2024-03-02T12:52:12;1.33;;;1.20;;
68050;SDS011;54839;51.364;7.246;2024-03-02T12:54:40;2.00;;;1.30;;
68050;SDS011;54839;51.364;7.246;2024-03-02T12:57:06;2.27;;;1.20;;
68050;SDS011;54839;51.364;7.246;2024-03-02T12:59:31;1.30;;;1.17;;
68050;SDS011;54839;51.364;7.246;2024-03-02T13:01:57;2.83;;;1.53;;
68050;SDS011;54839;51.364;7.246;2024-03-02T13:04:26;1.63;;;0.80;;
68050;SDS011;54839;51.364;7.246;2024-03-02T13:06:54;0.90;;;0.77;;
68050;SDS011;54839;51.364;7.246;2024-03-02T13:09:22;1.53;;;0.70;;
68050;SDS011;54839;51.364;7.246;2024-03-02T13:11:48;1.20;;;0.70;;
68050;SDS011;54839;51.364;7.246;2024-03-02T13:14:14;1.00;;;0.70;;
68050;SDS011;54839;51.364;7.246;2024-03-02T13:16:40;1.07;;;0.80;;
68050;SDS011;54839;51.364;7.246;2024-03-02T13:19:12;0.87;;;0.60;;
68050;SDS011;54839;51.364;7.246;2024-03-02T13:21:38;1.33;;;0.87;;
68050;SDS011;54839;51.364;7.246;2024-03-02T13:24:04;1.10;;;0.80;;
68050;SDS011;54839;51.364;7.246;2024-03-02T13:26:30;1.50;;;1.27;;
68050;SDS011;54839;51.364;7.246;2024-03-02T13:28:56;1.07;;;0.97;;
68050;SDS011;54839;51.364;7.246;2024-03-02T13:31:21;1.20;;;0.60;;
68050;SDS011;54839;51.364;7.246;2024-03-02T13:33:47;1.00;;;0.70;;
68050;SDS011;54839;51.364;7.246;2024-03-02T13:36:13;1.17;;;0.60;;
68050;SDS011;54839;51.364;7.246;2024-03-02T13:38:38;2.37;;;1.13;;
68050;SDS011;54839;51.364;7.246;2024-03-02T13:41:04;4.73;;;0.97;;
68050;SDS011;54839;51.364;7.246;2024-03-02T13:43:30;1.90;;;1.27;;
68050;SDS011;54839;51.364;7.246;2024-03-02T13:46:00;2.40;;;1.20;;
68050;SDS011;54839;51.364;7.246;2024-03-02T13:48:26;1.87;;;0.70;;
68050;SDS011;54839;51.364;7.246;2024-03-02T13:50:52;1.20;;;0.70;;
68050;SDS011;54839;51.364;7.246;2024-03-02T13:53:18;1.43;;;0.80;;
68050;SDS011;54839;51.364;7.246;2024-03-02T13:55:44;2.70;;;0.97;;
68050;SDS011;54839;51.364;7.246;2024-03-02T13:58:10;1.23;;;0.57;;
68050;SDS011;54839;51.364;7.246;2024-03-02T14:00:36;1.47;;;0.80;;
68050;SDS011;54839;51.364;7.246;2024-03-02T14:03:03;1.10;;;0.90;;
68050;SDS011;54839;51.364;7.246;2024-03-02T14:05:30;1.20;;;1.10;;
68050;SDS011;54839;51.364;7.246;2024-03-02T14:07:56;1.10;;;0.80;;
68050;SDS011;54839;51.364;7.246;2024-03-02T14:10:22;1.23;;;0.80;;
68050;SDS011;54839;51.364;7.246;2024-03-02T14:12:48;2.10;;;0.80;;
68050;SDS011;54839;51.364;7.246;2024-03-02T14:15:14;1.77;;;1.37;;
68050;SDS011;54839;51.364;7.246;2024-03-02T14:17:40;1.73;;;1.20;;
68050;SDS011;54839;51.364;7.246;2024-03-02T14:20:05;1.30;;;1.17;;
68050;SDS011;54839;51.364;7.246;2024-03-02T14:22:31;3.23;;;0.93;;
68050;SDS011;54839;51.364;7.246;2024-03-02T14:24:58;5.63;;;1.10;;
68050;SDS011;54839;51.364;7.246;2024-03-02T14:27:24;1.20;;;1.10;;
68050;SDS011;54839;51.364;7.246;2024-03-02T14:29:50;2.17;;;1.40;;
68050;SDS011;54839;51.364;7.246;2024-03-02T14:32:16;0.87;;;0.67;;
68050;SDS011;54839;51.364;7.246;2024-03-02T14:34:42;0.83;;;0.80;;
68050;SDS011;54839;51.364;7.246;2024-03-02T14:37:07;2.70;;;1.23;;
68050;SDS011;54839;51.364;7.246;2024-03-02T14:39:33;5.30;;;1.70;;
68050;SDS011;54839;51.364;7.246;2024-03-02T14:42:00;1.17;;;1.00;;
68050;SDS011;54839;51.364;7.246;2024-03-02T14:44:26;1.20;;;1.10;;
68050;SDS011;54839;51.364;7.246;2024-03-02T14:46:52;3.23;;;1.30;;
68050;SDS011;54839;51.364;7.246;2024-03-02T14:49:18;2.30;;;0.83;;
68050;SDS011;54839;51.364;7.246;2024-03-02T14:51:44;1.67;;;1.20;;